Un réseau de détection de foudre en temps réel.
Régions/Pays:
Liste des stations pour "-" trié 0 par Rendement L
(Rendement L = Nombre de signaux utilisés dans la dernière heure pour le positionnement d'impacts à une distance jusque 5000 km)
StationVilleCommentairePaysStatutDernier signalSignauxRendement SRendement MRendement L
1435SzeghalomHungaryRunning2017-10-24 01:5923290|0%0|0%1090|46%
1777BajaHungaryRunning2017-10-24 01:5930110|0%0|0%1346|44%
735Leipzig / LößnigGermanyRunning2017-10-24 01:5922260|0%0|0%967|43%
1617Wien 22 JN88ggOE3WYCAustriaRunning2017-10-24 01:5921400|0%0|0%929|43%
1139Graz - RagnitzSystem RED, ferrite rods, shie...AustriaRunning2017-10-24 01:5919710|0%2|97%879|42%
1986IstraRussian FederationRunning2017-10-24 02:0019520|0%0|0%868|42%
912Marsov u UpiceRED - H+E-field + AS3935Czech RepublicRunning2017-10-24 01:5924840|0%0|0%1047|42%
934Mauston250mm x 7.5mm ferriteUnited States / WisconsinRunning2017-10-24 01:599710|0%0|0%406|41%
962VinnytsiaRED - 20170526 - testing in ne...UkraineRunning2017-10-24 01:5917850|0%0|0%940|41%
1171Cluj-NapocaRED, 20cm ferrite, shieldedRomaniaRunning2017-10-24 01:5932890|0%1|61%1342|40%
1692MielecBLUEPolandRunning2017-10-24 01:5931560|0%0|0%1273|40%
956TimisoaraSystem RED - ferrite - 20cmRomaniaRunning2017-10-24 01:5927670|0%0|0%1103|40%
787Bellaria Igea Marina (RN)ItalyRunning2017-10-24 01:5931650|0%25|38%1245|39%
1425Kastro ViotiasRED H-FieldGreeceRunning2017-10-24 01:5924930|0%732|51%984|39%
689Frankfort RH-2∟-300x7.5mm -- E-350x2mmUnited States / KentuckyRunning2017-10-24 01:587900|0%0|0%352|38%
1326Oinoi ViotiasRED H-FieldGreeceRunning2017-10-24 01:5917750|0%717|50%892|38%
683Hämeenlinna REDRED with 400mm Mobius loop wit...FinlandRunning2017-10-24 01:5928640|0%0|0%1103|38%
803Diavata / ThessalonikiRED H-Field sv2bzq.grGreeceRunning2017-10-24 01:5927370|0%682|45%1041|38%
1227Frydrychowice GórkaRED, Loop 80cm, shield, indoorPolandRunning2017-10-24 01:5030200|0%0|0%1167|37%
1572IoanninaBLUE E-Field metar.grGreeceRunning2017-10-24 01:5919590|0%443|39%787|36%
1971Saint-PetersburgRussian FederationRunning2017-10-24 02:0025320|0%0|0%933|36%
1884Baie-Comeau QCBlue 2x 200mm ferrite rodCanadaRunning2017-10-24 01:5910430|0%0|0%373|35%
1443Vaiano (PO)Sys BLUE, 3 x Ferrite Rod 200 ...ItalyRunning2017-10-24 01:5931780|0%31|48%1125|35%
1936Velky LapasSlovakia (Slovak Republic)Running2017-10-24 02:0027840|0%0|0%1000|35%
618LübeckRED 10.3/12.3, 2*SKS200/10NGermanyRunning2017-10-24 01:5922020|0%0|0%781|35%
688EinbeckREDGermanyRunning2017-10-24 01:5925620|0%0|0%900|35%
1644Guntramsdorf2AustriaRunning2017-10-24 01:5935050|0%0|0%1216|35%
836Castano Primo (MI) - CMLItalyRunning2017-10-24 01:5926610|0%0|0%923|34%
1885PozegaSystemBlueCroatiaRunning2017-10-24 02:0025090|0%31|60%881|34%
699StrausbergFerrite 200x15GermanyRunning2017-10-24 01:5923840|0%0|0%821|34%
768Lohja (Karjalohja)Cu cross loop 90cmFinlandRunning2017-10-24 01:5925910|0%0|0%889|34%
759Hof bei SalzburgAustriaRunning2017-10-24 01:5925910|0%0|0%877|34%
1300Antikyra ViotiasRED E-FieldGreeceRunning2017-10-24 01:5924780|0%347|25%837|34%
923Rzeszow-MilocinRED, E-33cm, H-90cm loop sh.PolandRunning2017-10-24 01:5935770|0%0|0%1197|33%
598SilkeborgRED with 2 amplifiersDenmarkRunning2017-10-24 01:5923520|0%0|0%771|33%
53Gersdorf a.d.F.AustriaRunning2017-10-24 01:5936060|0%0|0%1185|33%
1918BucharestSystem Blue, 1m LoopRomaniaRunning2017-10-24 02:0039770|0%439|31%1335|32%
1825IstanbulStock System Blue On TestTurkeyRunning2017-10-24 02:0038570|0%698|33%1285|32%
1341LuumäkiFinlandRunning2017-10-24 01:5936330|0%0|0%1185|32%
1047Oberau/WildschönauAustriaRunning2017-10-24 01:5929430|0%0|0%964|32%
1327Breitenbach am InnAustriaRunning2017-10-24 01:5925190|0%0|0%833|32%
1775Running2017-10-24 01:5917490|0%4|29%745|32%
1049Veghel(noord)NetherlandsRunning2017-10-24 01:5923140|0%0|0%746|32%
1001Jaworzno BankoweRED 90cm antena ekranPolandRunning2017-10-24 01:5938930|0%0|0%1251|32%
738Wodzislaw SlaskiPolandRunning2017-10-24 01:5938500|0%0|0%1229|32%
1439Frankfort BH-3▲-250x7.5mm -- E-150x4mmUnited States / KentuckyRunning2017-10-24 01:5913210|0%0|0%425|32%
1624GettorfH-Field: Coax Cross LoopGermanyRunning2017-10-24 01:5930590|0%0|0%981|32%
590Fensmark,HolmegaardRED with = 15 cm E-Field & 6...DenmarkRunning2017-10-24 01:5929220|0%0|0%935|32%
1902Juki, BujeSystem Blue, 2xFerriteCroatiaRunning2017-10-24 02:0027970|0%32|55%901|31%
1919KukeEstoniaRunning2017-10-24 02:0025300|0%0|0%814|31%
1408UelzenSystem REDGermanyRunning2017-10-24 01:5927340|0%0|0%865|31%
1776Running2017-10-24 01:5941580|0%0|0%1328|31%
988near. PardubiceSystem RED - OK1MXCzech RepublicRunning2017-10-24 01:5930940|0%0|0%970|31%
1924Nayoro, JAPANShonan Institute of TechnologyJapanRunning2017-10-24 01:591280|0%0|0%40|31%
1983Chibougamau QCBlue 2x 200mm ferrite rodCanadaRunning2017-10-24 02:007760|0%0|0%284|31%
894Hemže, near Choceň (RED)RED system, ferrite rodCzech RepublicRunning2017-10-24 01:5944380|0%0|0%1380|30%
922Tyczyn / Hermanowashielded 40cm loop, 45 turnsPolandRunning2017-10-24 01:5930670|0%0|0%921|30%
1072Kirchheim b. Münchensystem REDGermanyRunning2017-10-24 01:5922030|0%0|0%675|30%
1866Zakynthos Island-2sv8kou H-FieldGreeceRunning2017-10-24 02:0038741|51%279|34%1205|30%
1303Hong KongUnder inspectionChinaRunning2017-10-24 01:56880|0%0|0%27|30%
1972Horný SmokovecBLUE, H-2 x (200 x 15 mm) ferr...Slovakia (Slovak Republic)Running2017-10-24 02:0048300|0%0|0%1501|30%
952Poznań / PlewiskaMaciej SP3GTPolandRunning2017-10-24 01:5941770|0%0|0%1272|30%
1324Beamsville, OntarioFerrite rod, length=300mm, dia...CanadaRunning2017-10-24 01:5910220|0%0|0%312|30%
1387BentonH - 300 x 7.5 shielded, E-Fiel...United States / ArkansasRunning2017-10-24 01:5914550|0%1|29%440|30%
1662Mira VEon testItalyRunning2017-10-24 01:5950440|0%29|29%1514|30%
946Sherman300mm x 7.5mm ferrite, AS3935United States / ConnecticutRunning2017-10-24 01:5910930|0%0|0%330|30%
1271OssRED, 200mm ferrite, E under co...NetherlandsRunning2017-10-24 01:5922440|0%0|0%675|30%
944Hamburg-NeuenfeldeSystem RED - Coax loopGermanyRunning2017-10-24 01:5922570|0%0|0%666|30%
1605SiegenfeldSystem BLUE, 3 ferrite rods sh...AustriaRunning2017-10-24 01:5945580|0%0|0%1366|30%
1542Asheville300x7.5 ferrites, shielded, x,...United States / North CarolinaRunning2017-10-24 01:5914450|0%239|32%433|29%
1931PresovBLUE, H-2 x (200 x 15 mm) ferr...Slovakia (Slovak Republic)Running2017-10-24 02:0043960|0%0|0%1324|29%
1006BlausteinE-field : 1000mm Ø0,05mm in c...GermanyRunning2017-10-24 01:5920810|0%0|0%616|29%
1519Żernica3 x shielded loops 60cm dia.PolandRunning2017-10-24 01:5920240|0%0|0%598|29%
1259Monte Penice (PV) - CML+IW2MILItalyRunning2017-10-24 01:5932090|0%6|27%936|29%
1418RegensburgSystem Red, loop-antennaGermanyRunning2017-10-24 01:5932620|0%0|0%943|29%
1871Skiathos IslandBLUE E+H FIELDGreeceRunning2017-10-24 02:0032210|0%745|40%955|29%
1734OakhillBlue with 2x200mm ferriteUnited States / TexasRunning2017-10-24 01:5911890|0%0|0%345|29%
1814VeszprémHungaryRunning2017-10-24 02:0052140|0%0|0%1510|28%
1926BreznoAmatérska meteorologická stani...Slovakia (Slovak Republic)Running2017-10-24 02:0032200|0%0|0%881|28%
868ErlauSystem RED; 2x SKS120NGermanyRunning2017-10-24 01:5918710|0%0|0%622|28%
1681HeidenreichsteinBlueAustriaRunning2017-10-24 01:5947090|0%0|0%1322|28%
1578Olbersdorf/Zittau JO70juBlue-3H/1E -DL1DUR-GermanyRunning2017-10-24 01:5946410|0%0|0%1307|28%
1177Athelstane300mm x 7.5mm ferrite, E-Field...United States / WisconsinRunning2017-10-24 01:5918800|0%0|0%529|28%
1032Braunschweig-OstSystem REDGermanyRunning2017-10-24 01:5923410|0%0|0%658|28%
1575Ag. Dimitrios ViotiasBLUE E-Field +LP FilterGreeceRunning2017-10-24 01:5952060|0%793|27%1449|28%
954Nhh REDHungaryRunning2017-10-24 01:5916280|0%0|0%699|27%
992HeillecourtREDFranceRunning2017-10-24 01:5926190|0%0|0%731|27%
1026DelbrückGermanyRunning2017-10-24 01:5921580|0%0|0%583|27%
1654Silea (TV)■►Blue 3x20cm ferrite rodsItalyRunning2017-10-24 01:5948810|0%29|30%1328|27%
1463Zakynthos Island-1sv8kou H-FieldGreeceRunning2017-10-24 01:5939540|0%290|32%1079|27%
1383South Sydney, NSWAustralia / New South WalesRunning2017-10-24 01:591530|0%0|0%41|26%
585Nakskov I - 90cm Möbius w/traf...DenmarkRunning2017-10-24 01:5932020|0%0|0%848|26%
1899Banská BystricaSlovakia (Slovak Republic)Running2017-10-24 02:0050610|0%0|0%1362|26%
1857Berlin - Frankfurter TorblueGermanyRunning2017-10-24 02:0030180|0%0|0%811|26%
1868Levadia ViotiasBLUE E-Field +LP FilterGreeceRunning2017-10-24 02:0055770|0%802|25%1487|26%
1993GavleSA3ARL Blue 20 cm ferriteSwedenRunning2017-10-24 02:0020770|0%0|0%560|26%
1199Waterville800mm 5 turn coax ungroundedUnited States / OhioRunning2017-10-24 01:5922070|0%0|0%581|26%
826SolingenRED SystemGermanyRunning2017-10-24 01:5922670|0%0|0%590|26%
1828Orivesi / Västiläblue 2x20cm ferriteFinlandRunning2017-10-24 02:0025280|0%0|0%672|26%
829Bisingen (RED) DL1SEWLoop 1200mm,SKS 120GermanyRunning2017-10-24 01:5921140|0%0|0%550|26%
Un réseau mondial, communautaire et collaboratif de détection de foudre en temps réel. © 2003-2017 Blitzortung.org et ses participants
Sélectionnez votre langue
češtinadanskdeutschελληνικάenglishespañolsuomeksifrançaismagyaritaliano日本語latviskinederlandsenorskpolskiрусскийсрпскиsvenskatürkукраїнський
Si votre langue n'est pas disponible et que vous souhaitez l'ajouter, envoyez-nous un e-mail à info ☺ blitzortung.org